Time;durP1;ratioP1;P1;durP2;ratioP2;P2;SDS_P1;SDS_P2;PMS_P1;PMS_P2;Temp;Humidity;BMP_temperature;BMP_pressure;BME280_temperature;BME280_humidity;BME280_pressure;Samples;Min_cycle;Max_cycle;Signal;HPM_P1;HPM_P2
2022/11/02 00:00:12;;;;;;;11.98;3.45;;;14.90;99.90;;;;;;2077685;28;20104;-72
2022/11/02 00:01:29;;;;;;;13.70;2.83;;;14.90;99.90;;;;;;2077187;28;20032;-72
2022/11/02 00:02:30;;;;;;;10.43;2.65;;;14.90;99.90;;;;;;2079150;28;20493;-72
2022/11/02 00:03:30;;;;;;;6.60;2.47;;;14.90;99.90;;;;;;2077941;28;20456;-72
2022/11/02 00:04:31;;;;;;;8.15;2.53;;;15.00;99.90;;;;;;2077902;28;20156;-72
2022/11/02 00:05:32;;;;;;;13.85;3.10;;;15.00;99.90;;;;;;2078506;28;20022;-72
2022/11/02 00:06:33;;;;;;;10.18;2.78;;;15.00;99.90;;;;;;2077055;28;20036;-72
2022/11/02 00:07:33;;;;;;;14.65;3.45;;;15.00;99.90;;;;;;2077422;28;20028;-72
2022/11/02 00:08:34;;;;;;;14.80;3.30;;;15.00;99.90;;;;;;2077017;28;20108;-72
2022/11/02 00:09:34;;;;;;;9.10;2.47;;;15.00;99.90;;;;;;2075003;28;20033;-72
2022/11/02 00:10:35;;;;;;;12.93;2.63;;;15.00;99.90;;;;;;2079052;28;20441;-72
2022/11/02 00:11:36;;;;;;;13.60;3.58;;;15.00;99.90;;;;;;2077905;28;20362;-71
2022/11/02 00:12:37;;;;;;;8.88;2.75;;;15.00;99.90;;;;;;2076127;28;20017;-72
2022/11/02 00:13:37;;;;;;;9.68;2.45;;;15.00;99.90;;;;;;2077461;28;20136;-72
2022/11/02 00:14:38;;;;;;;11.95;2.58;;;15.00;99.90;;;;;;2078460;28;20049;-72
2022/11/02 00:15:38;;;;;;;11.75;3.67;;;15.00;99.90;;;;;;2076297;28;20041;-72
2022/11/02 00:16:39;;;;;;;9.57;2.83;;;15.00;99.90;;;;;;2077922;28;20029;-72
2022/11/02 00:17:46;;;;;;;13.80;2.95;;;15.00;99.90;;;;;;2078684;28;20044;-72
2022/11/02 00:18:50;;;;;;;12.20;2.88;;;15.00;99.90;;;;;;2079891;28;20029;-72
2022/11/02 00:19:50;;;;;;;7.88;2.78;;;15.00;99.90;;;;;;2079137;28;20381;-72
2022/11/02 00:20:51;;;;;;;11.70;3.38;;;15.00;99.90;;;;;;2076239;28;20029;-72
2022/11/02 00:21:51;;;;;;;11.27;2.92;;;15.00;99.90;;;;;;2079404;28;20045;-72
2022/11/02 00:22:56;;;;;;;11.93;2.75;;;15.00;99.90;;;;;;2078810;28;20025;-72
2022/11/02 00:23:57;;;;;;;9.93;2.97;;;15.10;99.90;;;;;;2077354;28;20033;-72
2022/11/02 00:25:00;;;;;;;15.05;3.03;;;15.10;99.90;;;;;;2077241;28;20408;-72
2022/11/02 00:26:02;;;;;;;11.63;2.47;;;15.10;99.90;;;;;;2077730;28;20108;-72
2022/11/02 00:27:02;;;;;;;11.73;3.15;;;15.10;99.90;;;;;;2077883;28;20044;-72
2022/11/02 00:28:03;;;;;;;9.35;2.58;;;15.00;99.90;;;;;;2079570;28;20059;-72
2022/11/02 00:29:04;;;;;;;11.20;3.22;;;15.10;99.90;;;;;;2077757;28;20018;-72
2022/11/02 00:30:05;;;;;;;9.27;2.42;;;15.10;99.90;;;;;;2079144;28;20381;-72
2022/11/02 00:31:06;;;;;;;8.98;2.85;;;15.10;99.90;;;;;;2078304;28;20021;-72
2022/11/02 00:32:06;;;;;;;8.98;2.70;;;15.10;99.90;;;;;;2079162;28;20030;-71
2022/11/02 00:33:07;;;;;;;13.25;3.17;;;15.10;99.90;;;;;;2079850;28;20083;-72
2022/11/02 00:34:07;;;;;;;11.80;3.28;;;15.10;99.90;;;;;;2079644;28;20064;-71
2022/11/02 00:35:09;;;;;;;11.18;2.90;;;15.10;99.90;;;;;;2078705;28;20045;-71
2022/11/02 00:36:09;;;;;;;12.10;2.63;;;15.10;99.90;;;;;;2078530;28;20033;-71
2022/11/02 00:37:10;;;;;;;10.13;2.50;;;15.10;99.90;;;;;;2077885;28;20057;-71
2022/11/02 00:38:11;;;;;;;11.52;2.85;;;15.20;99.90;;;;;;2078520;28;20017;-71
2022/11/02 00:39:11;;;;;;;8.68;2.78;;;15.20;99.90;;;;;;2077935;28;20030;-71
2022/11/02 00:40:12;;;;;;;13.48;3.20;;;15.20;99.90;;;;;;2080495;28;20025;-71
2022/11/02 00:41:14;;;;;;;12.70;2.65;;;15.20;99.90;;;;;;2077627;28;20030;-71
2022/11/02 00:42:15;;;;;;;13.77;3.38;;;15.20;99.90;;;;;;2078249;28;20374;-72
2022/11/02 00:43:15;;;;;;;9.57;2.45;;;15.20;99.90;;;;;;2077963;28;20029;-71
2022/11/02 00:44:16;;;;;;;17.33;3.00;;;15.20;99.90;;;;;;2077123;28;20068;-71
2022/11/02 00:45:16;;;;;;;7.82;2.30;;;15.20;99.90;;;;;;2078834;28;20029;-71
2022/11/02 00:46:17;;;;;;;12.93;3.08;;;15.20;99.90;;;;;;2078093;28;20580;-71
2022/11/02 00:47:17;;;;;;;10.20;2.50;;;15.20;99.90;;;;;;2079334;28;20025;-71
2022/11/02 00:48:18;;;;;;;12.77;2.78;;;15.20;99.90;;;;;;2078947;28;20139;-71
2022/11/02 00:49:19;;;;;;;15.45;3.47;;;15.20;99.90;;;;;;2078046;28;20029;-71
2022/11/02 00:50:20;;;;;;;12.07;2.90;;;15.20;99.90;;;;;;2078601;28;20022;-72
2022/11/02 00:51:20;;;;;;;10.93;2.97;;;15.30;99.90;;;;;;2079089;28;20051;-71
2022/11/02 00:52:21;;;;;;;9.40;2.30;;;15.20;99.90;;;;;;2079520;28;20064;-71
2022/11/02 00:53:21;;;;;;;8.73;2.25;;;15.30;99.90;;;;;;2078924;28;20029;-71
2022/11/02 00:54:22;;;;;;;10.50;2.75;;;15.30;99.90;;;;;;2078862;28;20541;-71
2022/11/02 00:55:23;;;;;;;10.98;2.80;;;15.30;99.90;;;;;;2079493;28;20116;-71
2022/11/02 00:56:23;;;;;;;9.20;3.05;;;15.30;99.90;;;;;;2078013;28;20045;-72
2022/11/02 00:57:24;;;;;;;6.75;2.63;;;15.30;99.90;;;;;;2078739;28;20658;-71
2022/11/02 00:58:24;;;;;;;9.20;2.60;;;15.20;99.90;;;;;;2079411;28;20053;-71
2022/11/02 00:59:25;;;;;;;10.90;2.67;;;15.30;99.90;;;;;;2079301;28;20146;-71
2022/11/02 01:00:26;;;;;;;11.15;2.83;;;15.20;99.90;;;;;;2078835;28;20076;-71
2022/11/02 01:01:26;;;;;;;13.02;2.70;;;15.30;99.90;;;;;;2078906;28;20033;-71
2022/11/02 01:02:26;;;;;;;9.82;2.88;;;15.30;99.90;;;;;;2079419;28;20862;-71
2022/11/02 01:03:28;;;;;;;11.38;3.03;;;15.30;99.90;;;;;;2077922;28;20018;-71
2022/11/02 01:04:29;;;;;;;9.50;2.60;;;15.20;99.90;;;;;;2077247;28;20025;-71
2022/11/02 01:05:29;;;;;;;8.63;2.92;;;15.30;99.90;;;;;;2079495;28;20013;-71
2022/11/02 01:06:30;;;;;;;8.65;2.80;;;15.30;99.90;;;;;;2078479;28;20072;-71
2022/11/02 01:07:31;;;;;;;8.13;2.70;;;15.30;99.90;;;;;;2078514;28;20024;-71
2022/11/02 01:08:32;;;;;;;9.27;2.70;;;15.30;99.90;;;;;;2076832;28;20103;-71
2022/11/02 01:09:33;;;;;;;9.48;2.50;;;15.30;99.90;;;;;;2079030;28;20025;-71
2022/11/02 01:10:33;;;;;;;10.38;2.63;;;15.30;99.90;;;;;;2079600;28;20017;-71
2022/11/02 01:11:34;;;;;;;9.80;2.80;;;15.30;99.90;;;;;;2077321;28;20017;-71
2022/11/02 01:12:37;;;;;;;8.70;2.55;;;15.30;99.90;;;;;;2078324;28;20398;-71
2022/11/02 01:13:37;;;;;;;11.25;3.35;;;15.30;99.90;;;;;;2076835;28;20223;-71
2022/11/02 01:14:38;;;;;;;9.52;3.22;;;15.30;99.90;;;;;;2077852;28;20609;-71
2022/11/02 01:15:38;;;;;;;11.50;2.85;;;15.30;99.90;;;;;;2079018;28;20014;-71
2022/11/02 01:16:43;;;;;;;10.45;2.78;;;15.30;99.90;;;;;;2078157;28;20029;-71
2022/11/02 01:17:43;;;;;;;9.00;2.70;;;15.30;99.90;;;;;;2076752;28;20029;-72
2022/11/02 01:18:44;;;;;;;11.73;2.55;;;15.30;99.90;;;;;;2077491;28;20030;-72
2022/11/02 01:19:45;;;;;;;11.07;2.38;;;15.30;99.90;;;;;;2078016;28;20042;-72
2022/11/02 01:20:45;;;;;;;9.18;2.50;;;15.30;99.90;;;;;;2077702;28;20045;-72
2022/11/02 01:21:46;;;;;;;9.85;2.60;;;15.30;99.90;;;;;;2077993;28;20084;-72
2022/11/02 01:22:46;;;;;;;7.80;2.42;;;15.30;99.90;;;;;;2078909;28;20033;-72
2022/11/02 01:23:47;;;;;;;12.95;3.03;;;15.30;99.90;;;;;;2077278;28;20026;-71
2022/11/02 01:24:47;;;;;;;7.05;2.28;;;15.30;99.90;;;;;;2077430;28;20037;-72
2022/11/02 01:25:48;;;;;;;9.00;2.95;;;15.30;99.90;;;;;;2076561;28;20037;-72
2022/11/02 01:26:50;;;;;;;12.35;3.20;;;15.30;99.90;;;;;;2077618;28;20080;-72
2022/11/02 01:27:51;;;;;;;14.25;3.13;;;15.30;99.90;;;;;;2076890;28;20525;-72
2022/11/02 01:28:52;;;;;;;9.10;2.67;;;15.30;99.90;;;;;;2077975;28;20026;-72
2022/11/02 01:29:53;;;;;;;9.45;2.60;;;15.30;99.90;;;;;;2078906;28;20088;-72
2022/11/02 01:30:53;;;;;;;8.30;2.53;;;15.30;99.90;;;;;;2077461;28;20021;-71
2022/11/02 01:31:54;;;;;;;9.63;2.45;;;15.30;99.90;;;;;;2078939;28;20081;-71
2022/11/02 01:32:54;;;;;;;9.93;2.88;;;15.30;99.90;;;;;;2076459;28;20029;-71
2022/11/02 01:33:55;;;;;;;8.68;2.78;;;15.20;99.90;;;;;;2078632;28;20481;-71
2022/11/02 01:34:56;;;;;;;11.65;3.05;;;15.20;99.90;;;;;;2078630;28;20369;-72
2022/11/02 01:35:56;;;;;;;10.20;3.10;;;15.20;99.90;;;;;;2079016;28;20025;-72
2022/11/02 01:36:57;;;;;;;11.65;2.42;;;15.20;99.90;;;;;;2079151;28;20122;-71
2022/11/02 01:37:59;;;;;;;13.38;2.88;;;15.20;99.90;;;;;;2078570;28;21046;-71
2022/11/02 01:38:59;;;;;;;7.38;2.17;;;15.20;99.90;;;;;;2076956;28;20060;-71
2022/11/02 01:40:00;;;;;;;17.27;3.10;;;15.20;99.90;;;;;;2078248;28;20036;-71
2022/11/02 01:41:00;;;;;;;13.02;3.30;;;15.20;99.90;;;;;;2077354;28;20165;-72
2022/11/02 01:42:01;;;;;;;10.93;3.15;;;15.30;99.90;;;;;;2078844;28;20412;-72
2022/11/02 01:43:22;;;;;;;15.25;3.63;;;15.20;99.90;;;;;;2076780;28;20025;-71
2022/11/02 01:44:28;;;;;;;6.10;2.40;;;15.20;99.90;;;;;;2078849;28;20032;-72
2022/11/02 01:45:29;;;;;;;9.13;2.63;;;15.20;99.90;;;;;;2078512;28;20106;-71
2022/11/02 01:46:44;;;;;;;10.95;2.83;;;15.20;99.90;;;;;;2078669;28;20240;-71
2022/11/02 01:47:47;;;;;;;8.35;2.17;;;15.10;99.90;;;;;;2077773;28;20029;-71
2022/11/02 01:48:50;;;;;;;8.95;2.85;;;15.20;99.90;;;;;;2077423;28;20395;-71
2022/11/02 01:50:03;;;;;;;12.40;2.90;;;15.10;99.90;;;;;;2084498;28;20151;-71
2022/11/02 01:51:09;;;;;;;9.50;2.63;;;15.10;99.90;;;;;;2082429;28;20032;-72
2022/11/02 01:52:15;;;;;;;6.78;2.35;;;15.10;99.90;;;;;;2075047;28;20022;-71
2022/11/02 01:53:16;;;;;;;10.75;2.60;;;15.10;99.90;;;;;;2077479;28;20021;-71
2022/11/02 01:54:24;;;;;;;8.45;2.17;;;15.10;99.90;;;;;;2078905;28;20075;-71
2022/11/02 01:55:29;;;;;;;9.75;2.42;;;15.10;99.90;;;;;;2076947;28;20033;-71
2022/11/02 01:56:31;;;;;;;10.07;2.28;;;15.10;99.90;;;;;;2078868;28;20037;-71
2022/11/02 01:57:34;;;;;;;10.93;2.80;;;15.10;99.90;;;;;;2077934;28;20022;-71
2022/11/02 01:58:35;;;;;;;9.80;2.88;;;15.10;99.90;;;;;;2079396;28;20032;-71
2022/11/02 01:59:45;;;;;;;10.20;2.58;;;15.10;99.90;;;;;;2077732;28;20414;-71
2022/11/02 02:00:45;;;;;;;8.70;2.17;;;15.10;99.90;;;;;;2077712;28;20069;-71
2022/11/02 02:01:47;;;;;;;11.73;2.35;;;15.00;99.90;;;;;;2079722;28;20760;-71
2022/11/02 02:03:07;;;;;;;8.63;2.47;;;15.00;99.90;;;;;;2078011;28;20030;-71
2022/11/02 02:04:10;;;;;;;7.75;2.72;;;15.00;99.90;;;;;;2077998;28;20037;-71
2022/11/02 02:05:13;;;;;;;9.30;2.45;;;15.00;99.90;;;;;;2079000;28;20029;-71
2022/11/02 02:06:14;;;;;;;11.63;2.67;;;15.00;99.90;;;;;;2078847;28;20481;-71
2022/11/02 02:07:15;;;;;;;8.77;2.30;;;15.00;99.90;;;;;;2078289;28;20029;-71
2022/11/02 02:08:18;;;;;;;8.57;2.78;;;14.90;99.90;;;;;;2076981;28;20571;-71
2022/11/02 02:09:20;;;;;;;9.52;2.80;;;14.90;99.90;;;;;;2079090;28;20497;-71
2022/11/02 02:10:21;;;;;;;7.20;2.63;;;15.00;99.90;;;;;;2077527;28;20440;-71
2022/11/02 02:11:28;;;;;;;7.50;2.70;;;14.90;99.90;;;;;;2078884;28;20059;-71
2022/11/02 02:12:30;;;;;;;8.10;2.22;;;15.00;99.90;;;;;;2077557;28;20025;-71
2022/11/02 02:13:31;;;;;;;9.40;2.58;;;14.90;99.90;;;;;;2077424;28;21465;-71
2022/11/02 02:14:33;;;;;;;11.07;2.53;;;14.90;99.90;;;;;;2077136;28;20024;-71
2022/11/02 02:15:57;;;;;;;10.00;2.97;;;14.90;99.90;;;;;;2077301;28;20163;-71
2022/11/02 02:17:38;;;;;;;10.85;2.60;;;15.00;99.90;;;;;;2077233;28;20069;-71
2022/11/02 02:18:56;;;;;;;7.93;2.22;;;14.90;99.90;;;;;;2069070;28;20029;-71
2022/11/02 02:20:33;;;;;;;13.05;3.30;;;14.90;99.90;;;;;;2077369;28;20033;-71
2022/11/02 02:22:02;;;;;;;11.65;3.08;;;14.90;99.90;;;;;;2076540;28;20041;-71
2022/11/02 02:23:40;;;;;;;7.97;2.47;;;14.90;99.90;;;;;;2075511;28;20447;-71
2022/11/02 02:24:54;;;;;;;8.63;2.45;;;14.90;99.90;;;;;;2076229;28;20029;-72
2022/11/02 02:26:00;;;;;;;9.85;2.50;;;14.90;99.90;;;;;;2076604;28;20037;-71
2022/11/02 02:27:29;;;;;;;9.90;2.50;;;14.90;99.90;;;;;;2078792;28;20526;-72
2022/11/02 02:28:48;;;;;;;7.43;2.58;;;14.90;99.90;;;;;;2078500;28;20033;-71
2022/11/02 02:30:08;;;;;;;13.90;2.60;;;14.90;99.90;;;;;;2077837;28;20384;-71
2022/11/02 02:31:15;;;;;;;8.00;2.45;;;14.90;99.90;;;;;;2077343;28;20084;-71
2022/11/02 02:32:17;;;;;;;9.77;2.60;;;14.80;99.90;;;;;;2076699;28;20037;-71
2022/11/02 02:33:30;;;;;;;7.00;2.67;;;14.80;99.90;;;;;;2075595;28;20029;-71
2022/11/02 02:34:55;;;;;;;9.82;2.45;;;14.90;99.90;;;;;;2077770;28;20025;-71
2022/11/02 02:36:09;;;;;;;10.48;2.30;;;14.80;99.90;;;;;;2076840;28;20104;-71
2022/11/02 02:37:17;;;;;;;12.93;2.72;;;14.80;99.90;;;;;;2077123;28;20044;-71
2022/11/02 02:38:40;;;;;;;11.73;3.20;;;14.80;99.90;;;;;;2078222;28;20037;-71
2022/11/02 02:39:57;;;;;;;9.15;2.75;;;14.80;99.90;;;;;;2077069;28;20076;-71
2022/11/02 02:41:17;;;;;;;9.10;2.63;;;14.80;99.90;;;;;;2076183;28;20025;-71
2022/11/02 02:42:22;;;;;;;8.88;2.30;;;14.80;99.90;;;;;;2077471;28;20036;-71
2022/11/02 02:43:35;;;;;;;9.82;3.20;;;14.80;99.90;;;;;;2077969;28;20032;-71
2022/11/02 02:44:41;;;;;;;9.55;2.75;;;14.80;99.90;;;;;;2078163;28;20469;-71
2022/11/02 02:45:54;;;;;;;10.70;3.10;;;14.70;99.90;;;;;;2077406;28;20739;-71
2022/11/02 02:46:59;;;;;;;7.43;3.13;;;14.80;99.90;;;;;;2076425;28;20026;-71
2022/11/02 02:48:06;;;;;;;10.18;2.72;;;14.80;99.90;;;;;;2077855;28;20034;-71
2022/11/02 02:49:10;;;;;;;7.38;2.33;;;14.80;99.90;;;;;;2077979;28;20072;-71
2022/11/02 02:50:16;;;;;;;10.80;2.80;;;14.80;99.90;;;;;;2077133;28;20039;-71
2022/11/02 02:51:27;;;;;;;9.90;2.47;;;14.80;99.90;;;;;;2077273;28;20045;-72
2022/11/02 02:52:29;;;;;;;8.73;2.78;;;14.80;99.90;;;;;;2077128;28;20060;-71
2022/11/02 02:53:35;;;;;;;10.90;3.15;;;14.80;99.90;;;;;;2077177;28;20022;-71
2022/11/02 02:54:41;;;;;;;9.27;2.95;;;14.80;99.90;;;;;;2077838;28;20076;-71
2022/11/02 02:55:46;;;;;;;12.43;2.70;;;14.80;99.90;;;;;;2078261;28;20030;-71
2022/11/02 02:56:55;;;;;;;13.70;3.00;;;14.80;99.90;;;;;;2084977;28;20672;-71
2022/11/02 02:57:59;;;;;;;12.75;3.33;;;14.80;99.90;;;;;;2076892;28;20767;-71
2022/11/02 02:59:03;;;;;;;11.07;2.95;;;14.80;99.90;;;;;;2084942;28;20076;-71
2022/11/02 03:00:10;;;;;;;10.00;2.38;;;14.80;99.90;;;;;;2084364;28;20534;-71
2022/11/02 03:01:13;;;;;;;11.57;2.58;;;14.80;99.90;;;;;;2078707;28;20659;-71
2022/11/02 03:02:22;;;;;;;11.15;2.83;;;14.80;99.90;;;;;;2076954;28;20069;-71
2022/11/02 03:03:25;;;;;;;12.05;3.05;;;14.80;99.90;;;;;;2077216;28;20022;-71
2022/11/02 03:04:25;;;;;;;11.50;3.13;;;14.80;99.90;;;;;;2077522;28;20441;-71
2022/11/02 03:05:35;;;;;;;7.25;2.40;;;14.80;99.90;;;;;;2078880;28;20108;-71
2022/11/02 03:06:36;;;;;;;11.05;2.60;;;14.80;99.90;;;;;;2078068;28;20029;-71
2022/11/02 03:07:37;;;;;;;10.18;2.47;;;14.70;99.90;;;;;;2086072;28;20098;-72
2022/11/02 03:08:40;;;;;;;7.85;2.70;;;14.70;99.90;;;;;;2083503;28;20032;-71
2022/11/02 03:09:58;;;;;;;13.35;3.17;;;14.70;99.90;;;;;;2078204;28;20049;-71
2022/11/02 03:11:08;;;;;;;11.20;2.42;;;14.70;99.90;;;;;;2077675;28;20014;-71
2022/11/02 03:12:35;;;;;;;16.58;2.75;;;14.70;99.90;;;;;;2076388;28;20029;-71
2022/11/02 03:14:01;;;;;;;10.18;2.65;;;14.70;99.90;;;;;;2077015;28;20080;-71
2022/11/02 03:15:12;;;;;;;8.73;2.75;;;14.70;99.90;;;;;;2077219;28;20025;-71
2022/11/02 03:16:43;;;;;;;10.00;2.30;;;14.70;99.90;;;;;;2076136;28;20049;-71
2022/11/02 03:18:01;;;;;;;13.05;3.03;;;14.70;99.90;;;;;;2077539;28;20022;-71
2022/11/02 03:19:15;;;;;;;8.15;2.85;;;14.70;99.90;;;;;;2077490;28;20084;-71
2022/11/02 03:20:28;;;;;;;7.40;2.40;;;14.70;99.90;;;;;;2077730;28;20036;-71
2022/11/02 03:21:40;;;;;;;10.80;2.78;;;14.60;99.90;;;;;;2075729;28;20220;-71
2022/11/02 03:23:08;;;;;;;7.93;2.45;;;14.70;99.90;;;;;;2075919;28;20021;-72
2022/11/02 03:24:15;;;;;;;9.35;2.80;;;14.60;99.90;;;;;;2077241;28;20034;-72
2022/11/02 03:25:37;;;;;;;8.02;2.42;;;14.60;99.90;;;;;;2077494;28;20469;-72
2022/11/02 03:26:43;;;;;;;9.63;2.35;;;14.60;99.90;;;;;;2075143;28;20042;-72
2022/11/02 03:27:51;;;;;;;9.02;2.33;;;14.60;99.90;;;;;;2075808;28;20026;-72
2022/11/02 03:28:58;;;;;;;10.43;2.78;;;14.60;99.90;;;;;;2070865;28;20026;-72
2022/11/02 03:30:19;;;;;;;9.32;2.70;;;14.60;99.90;;;;;;2079087;28;20104;-72
2022/11/02 03:31:35;;;;;;;11.02;2.60;;;14.60;99.90;;;;;;2075855;28;20044;-71
2022/11/02 03:32:45;;;;;;;8.88;2.08;;;14.60;99.90;;;;;;2078090;28;20056;-72
2022/11/02 03:34:23;;;;;;;12.30;2.75;;;14.60;99.90;;;;;;2076842;28;20022;-72
2022/11/02 03:35:46;;;;;;;12.98;2.95;;;14.60;99.90;;;;;;2078400;28;20034;-72
2022/11/02 03:36:50;;;;;;;11.48;2.97;;;14.60;99.90;;;;;;2076723;28;20037;-72
2022/11/02 03:37:59;;;;;;;11.35;2.47;;;14.60;99.90;;;;;;2075667;28;20037;-72
2022/11/02 03:39:06;;;;;;;9.13;2.20;;;14.60;99.90;;;;;;2077027;28;20042;-72
2022/11/02 03:40:14;;;;;;;8.52;2.58;;;14.60;99.90;;;;;;2077745;28;20531;-71
2022/11/02 03:41:17;;;;;;;9.27;2.30;;;14.60;99.90;;;;;;2077880;28;20049;-71
2022/11/02 03:42:24;;;;;;;7.30;2.25;;;14.60;99.90;;;;;;2077782;28;20481;-71
2022/11/02 03:43:26;;;;;;;14.13;2.78;;;14.60;99.90;;;;;;2077303;28;20128;-71
2022/11/02 03:44:29;;;;;;;7.95;2.60;;;14.60;99.90;;;;;;2078664;28;20493;-72
2022/11/02 03:45:37;;;;;;;10.38;2.92;;;14.60;99.90;;;;;;2078406;28;20116;-72
2022/11/02 03:46:40;;;;;;;9.85;2.35;;;14.60;99.90;;;;;;2077317;28;20123;-72
2022/11/02 03:47:45;;;;;;;14.95;3.50;;;14.60;99.90;;;;;;2077220;28;20072;-71
2022/11/02 03:48:48;;;;;;;10.07;3.00;;;14.60;99.90;;;;;;2078080;28;20119;-71
2022/11/02 03:49:50;;;;;;;9.63;2.53;;;14.60;99.90;;;;;;2079171;28;20116;-71
2022/11/02 03:50:53;;;;;;;9.85;2.90;;;14.60;99.90;;;;;;2078895;28;21217;-71
2022/11/02 03:51:57;;;;;;;11.82;3.60;;;14.60;99.90;;;;;;2079174;28;20041;-71
2022/11/02 03:53:08;;;;;;;11.82;2.95;;;14.60;99.90;;;;;;2078275;28;20534;-71
2022/11/02 03:54:20;;;;;;;12.13;2.65;;;14.60;99.90;;;;;;2079144;28;20025;-71
2022/11/02 03:55:35;;;;;;;12.82;2.70;;;14.60;99.90;;;;;;2078623;28;20044;-71
2022/11/02 03:56:43;;;;;;;10.77;2.83;;;14.60;99.90;;;;;;2077893;28;20457;-71
2022/11/02 03:57:49;;;;;;;10.38;2.50;;;14.60;99.90;;;;;;2080185;28;20022;-71
2022/11/02 03:58:50;;;;;;;6.40;2.33;;;14.50;99.90;;;;;;2078253;28;20076;-71
2022/11/02 03:59:51;;;;;;;6.95;2.70;;;14.50;99.90;;;;;;2076973;28;20037;-71
2022/11/02 04:01:00;;;;;;;11.02;2.92;;;14.50;99.90;;;;;;2077134;28;21073;-72
2022/11/02 04:02:01;;;;;;;7.90;2.50;;;14.50;99.90;;;;;;2080035;28;20083;-71
2022/11/02 04:03:05;;;;;;;8.93;2.78;;;14.50;99.90;;;;;;2078453;28;20159;-71
2022/11/02 04:04:06;;;;;;;6.82;2.22;;;14.50;99.90;;;;;;2079454;28;20025;-71
2022/11/02 04:05:07;;;;;;;7.90;2.47;;;14.50;99.90;;;;;;2080155;28;20041;-72
2022/11/02 04:06:07;;;;;;;8.82;2.42;;;14.50;99.90;;;;;;2078452;28;20017;-71
2022/11/02 04:07:08;;;;;;;8.68;2.10;;;14.50;99.90;;;;;;2078041;28;20597;-71
2022/11/02 04:08:23;;;;;;;10.63;3.10;;;14.50;99.90;;;;;;2078182;28;20021;-71
2022/11/02 04:09:23;;;;;;;11.70;3.53;;;14.50;99.90;;;;;;2076479;28;20723;-71
2022/11/02 04:10:24;;;;;;;9.90;2.78;;;14.50;99.90;;;;;;2079999;28;20390;-71
2022/11/02 04:15:23;;;;;;;9.75;3.03;;;14.40;99.90;;;;;;2079106;28;20025;-71
2022/11/02 04:16:24;;;;;;;4.90;1.90;;;14.40;99.90;;;;;;2079486;28;20462;-71
2022/11/02 04:20:03;;;;;;;12.93;2.85;;;14.40;99.90;;;;;;2080441;28;20025;-71
2022/11/02 04:21:04;;;;;;;11.25;2.50;;;14.40;99.90;;;;;;2078253;28;20040;-72
2022/11/02 04:26:02;;;;;;;8.48;2.75;;;14.40;99.90;;;;;;2077781;28;20029;-72
2022/11/02 04:27:02;;;;;;;10.13;2.75;;;14.40;99.90;;;;;;2079092;28;20104;-72
2022/11/02 04:28:07;;;;;;;10.25;2.80;;;14.40;99.90;;;;;;2077176;28;20034;-72
2022/11/02 04:29:08;;;;;;;8.48;2.22;;;14.40;99.90;;;;;;2079780;28;20573;-72
2022/11/02 04:30:09;;;;;;;10.52;2.55;;;14.30;99.90;;;;;;2077371;28;20126;-71
2022/11/02 04:31:11;;;;;;;7.97;2.45;;;14.30;99.90;;;;;;2078059;28;20021;-72
2022/11/02 04:32:12;;;;;;;8.50;2.35;;;14.30;99.90;;;;;;2078280;28;20036;-72
2022/11/02 04:34:32;;;;;;;8.65;2.65;;;14.40;99.90;;;;;;2077999;28;20449;-72
2022/11/02 04:35:34;;;;;;;8.38;2.58;;;14.30;99.90;;;;;;2076924;28;20100;-72
2022/11/02 04:36:34;;;;;;;9.90;2.20;;;14.30;99.90;;;;;;2076246;28;20017;-72
2022/11/02 04:38:58;;;;;;;9.68;2.67;;;14.30;99.90;;;;;;2079411;28;20085;-71
2022/11/02 04:39:59;;;;;;;8.13;2.22;;;14.30;99.90;;;;;;2079186;28;20026;-71
2022/11/02 04:42:18;;;;;;;12.30;3.05;;;14.30;99.90;;;;;;2080370;28;20029;-71
2022/11/02 04:43:18;;;;;;;12.38;2.85;;;14.30;99.90;;;;;;2076466;28;20022;-71
2022/11/02 04:44:19;;;;;;;11.10;3.17;;;14.30;99.90;;;;;;2077346;28;20025;-71
2022/11/02 04:45:20;;;;;;;10.48;2.63;;;14.20;99.90;;;;;;2078045;28;20072;-71
2022/11/02 04:46:22;;;;;;;6.38;2.30;;;14.20;99.90;;;;;;2077870;28;20068;-71
2022/11/02 04:47:23;;;;;;;11.35;2.75;;;14.30;99.90;;;;;;2078234;28;20032;-71
2022/11/02 04:48:23;;;;;;;6.68;2.20;;;14.30;99.90;;;;;;2077475;28;20033;-71
2022/11/02 04:49:24;;;;;;;8.23;2.55;;;14.30;99.90;;;;;;2078621;28;20024;-71
2022/11/02 04:50:24;;;;;;;7.60;2.53;;;14.20;99.90;;;;;;2078675;28;20029;-71
2022/11/02 04:51:27;;;;;;;9.60;2.75;;;14.20;99.90;;;;;;2077818;28;20025;-71
2022/11/02 04:52:28;;;;;;;6.72;2.45;;;14.30;99.90;;;;;;2078582;28;20018;-71
2022/11/02 04:53:29;;;;;;;9.63;2.42;;;14.20;99.90;;;;;;2077975;28;20660;-71
2022/11/02 04:54:29;;;;;;;10.25;3.00;;;14.30;99.90;;;;;;2077743;28;20052;-71
2022/11/02 04:55:30;;;;;;;8.68;2.28;;;14.30;99.90;;;;;;2078591;28;20037;-71
2022/11/02 04:56:31;;;;;;;7.43;2.10;;;14.20;99.90;;;;;;2076803;28;20758;-72
2022/11/02 04:57:31;;;;;;;8.45;2.45;;;14.20;99.90;;;;;;2079419;28;20025;-71
2022/11/02 04:58:32;;;;;;;9.27;2.70;;;14.20;99.90;;;;;;2077251;28;20093;-71
2022/11/02 04:59:32;;;;;;;11.27;2.30;;;14.20;99.90;;;;;;2076192;28;20499;-71
2022/11/02 05:00:33;;;;;;;9.40;2.55;;;14.20;99.90;;;;;;2078181;28;20532;-71
2022/11/02 05:01:33;;;;;;;7.47;2.33;;;14.20;99.90;;;;;;2079583;28;20024;-71
2022/11/02 05:02:34;;;;;;;11.02;2.70;;;14.20;99.90;;;;;;2080580;28;20021;-71
2022/11/02 05:03:34;;;;;;;6.65;2.00;;;14.20;99.90;;;;;;2078574;28;20028;-71
2022/11/02 05:04:35;;;;;;;8.32;2.80;;;14.20;99.90;;;;;;2077234;28;20029;-71
2022/11/02 05:05:35;;;;;;;9.20;2.75;;;14.20;99.90;;;;;;2078582;28;20045;-71
2022/11/02 05:06:36;;;;;;;6.00;2.00;;;14.30;99.90;;;;;;2075629;28;20108;-71
2022/11/02 05:07:37;;;;;;;6.72;2.38;;;14.20;99.90;;;;;;2077168;28;20163;-71
2022/11/02 05:08:37;;;;;;;8.35;2.53;;;14.30;99.90;;;;;;2079807;28;20021;-71
2022/11/02 05:09:41;;;;;;;8.52;2.70;;;14.30;99.90;;;;;;2078109;28;20049;-71
2022/11/02 05:10:41;;;;;;;11.40;2.55;;;14.30;99.90;;;;;;2079338;28;20029;-71
2022/11/02 05:11:42;;;;;;;8.10;2.17;;;14.30;99.90;;;;;;2077068;28;20050;-71
2022/11/02 05:12:42;;;;;;;11.07;2.72;;;14.30;99.90;;;;;;2076505;28;20030;-71
2022/11/02 05:13:44;;;;;;;8.90;2.33;;;14.20;99.90;;;;;;2078934;28;20020;-71
2022/11/02 05:14:44;;;;;;;8.93;2.22;;;14.30;99.90;;;;;;2079307;28;20029;-72
2022/11/02 05:15:45;;;;;;;10.07;2.78;;;14.30;99.90;;;;;;2076747;28;20054;-71
2022/11/02 05:16:45;;;;;;;9.32;2.45;;;14.30;99.90;;;;;;2077588;28;20491;-71
2022/11/02 05:17:47;;;;;;;9.55;2.33;;;14.30;99.90;;;;;;2079384;28;20370;-71
2022/11/02 05:18:48;;;;;;;8.02;2.33;;;14.30;99.90;;;;;;2077770;28;20056;-71
2022/11/02 05:19:48;;;;;;;9.20;2.30;;;14.30;99.90;;;;;;2079240;28;20443;-71
2022/11/02 05:20:53;;;;;;;9.95;2.88;;;14.30;99.90;;;;;;2079178;28;20033;-71
2022/11/02 05:21:54;;;;;;;10.07;2.25;;;14.30;99.90;;;;;;2078583;28;20056;-71
2022/11/02 05:22:54;;;;;;;9.30;2.33;;;14.30;99.90;;;;;;2079376;28;20575;-71
2022/11/02 05:23:55;;;;;;;12.60;2.53;;;14.30;99.90;;;;;;2077115;28;20063;-71
2022/11/02 05:24:55;;;;;;;8.30;2.50;;;14.30;99.90;;;;;;2078406;28;20021;-72
2022/11/02 05:26:00;;;;;;;10.82;2.55;;;14.30;99.90;;;;;;2078632;28;20978;-72
2022/11/02 05:27:01;;;;;;;11.85;3.38;;;14.30;99.90;;;;;;2078657;28;20036;-71
2022/11/02 05:28:01;;;;;;;9.10;2.67;;;14.30;99.90;;;;;;2077262;28;20026;-71
2022/11/02 05:29:02;;;;;;;10.13;2.38;;;14.30;99.90;;;;;;2078271;28;20057;-71
2022/11/02 05:30:04;;;;;;;7.45;1.92;;;14.30;99.90;;;;;;2079195;28;20029;-71
2022/11/02 05:31:04;;;;;;;13.38;2.70;;;14.30;99.90;;;;;;2078608;28;20113;-72
2022/11/02 05:32:05;;;;;;;6.93;2.30;;;14.30;99.90;;;;;;2079183;28;20032;-71
2022/11/02 05:33:05;;;;;;;9.40;3.45;;;14.30;99.90;;;;;;2077850;28;20028;-71
2022/11/02 05:34:06;;;;;;;9.85;2.58;;;14.30;99.90;;;;;;2075597;28;20029;-71
2022/11/02 05:35:07;;;;;;;15.27;3.15;;;14.30;99.90;;;;;;2076860;28;20108;-71
2022/11/02 05:36:08;;;;;;;11.40;2.85;;;14.30;99.90;;;;;;2073660;28;20068;-71
2022/11/02 05:37:09;;;;;;;9.88;2.53;;;14.30;99.90;;;;;;2076510;28;20025;-71
2022/11/02 05:38:10;;;;;;;11.50;2.90;;;14.30;99.90;;;;;;2078496;28;20083;-71
2022/11/02 05:39:10;;;;;;;11.45;3.28;;;14.30;99.90;;;;;;2078669;28;20029;-71
2022/11/02 05:40:11;;;;;;;8.93;2.65;;;14.30;99.90;;;;;;2080207;28;20032;-71
2022/11/02 05:41:12;;;;;;;9.65;2.95;;;14.30;99.90;;;;;;2076382;28;20091;-71
2022/11/02 05:42:12;;;;;;;8.10;2.45;;;14.30;99.90;;;;;;2075745;28;20033;-71
2022/11/02 05:43:15;;;;;;;11.98;2.63;;;14.30;99.90;;;;;;2077381;28;20103;-71
2022/11/02 05:44:15;;;;;;;11.27;2.83;;;14.30;99.90;;;;;;2076979;28;20018;-71
2022/11/02 05:45:16;;;;;;;9.27;2.55;;;14.30;99.90;;;;;;2078908;28;20083;-71
2022/11/02 05:46:17;;;;;;;12.10;2.50;;;14.30;99.90;;;;;;2078242;28;20025;-71
2022/11/02 05:47:18;;;;;;;14.20;3.10;;;14.30;99.90;;;;;;2078632;28;20362;-71
2022/11/02 05:48:19;;;;;;;13.57;3.42;;;14.30;99.90;;;;;;2076800;28;20053;-71